createdAt,value
2019-03-24T00:02:17.924Z,203.80
2019-03-24T00:04:46.512Z,200.40
2019-03-24T00:07:15.055Z,201.93
2019-03-24T00:09:43.362Z,198.80
2019-03-24T00:12:11.600Z,197.73
2019-03-24T00:14:39.937Z,200.77
2019-03-24T00:17:08.546Z,196.73
2019-03-24T00:19:37.110Z,201.43
2019-03-24T00:22:05.367Z,194.17
2019-03-24T00:24:33.992Z,189.30
2019-03-24T00:27:02.554Z,213.33
2019-03-24T00:29:31.151Z,200.33
2019-03-24T00:31:59.723Z,192.77
2019-03-24T00:34:27.887Z,200.60
2019-03-24T00:36:56.466Z,205.67
2019-03-24T00:39:25.071Z,195.90
2019-03-24T00:41:54.595Z,208.13
2019-03-24T00:44:22.912Z,207.60
2019-03-24T00:46:53.118Z,205.60
2019-03-24T00:49:21.678Z,204.77
2019-03-24T00:51:50.230Z,193.30
2019-03-24T00:54:18.797Z,195.87
2019-03-24T00:56:47.294Z,198.97
2019-03-24T00:59:15.785Z,217.90
2019-03-24T01:01:44.437Z,201.67
2019-03-24T01:04:13.000Z,202.67
2019-03-24T01:06:41.498Z,204.27
2019-03-24T01:09:09.977Z,198.40
2019-03-24T01:11:38.623Z,207.07
2019-03-24T01:14:07.197Z,202.00
2019-03-24T01:16:35.769Z,207.10
2019-03-24T01:19:04.370Z,202.23
2019-03-24T01:21:32.936Z,202.63
2019-03-24T01:24:01.526Z,204.60
2019-03-24T01:26:30.046Z,199.50
2019-03-24T01:28:58.623Z,199.37
2019-03-24T01:31:27.163Z,203.90
2019-03-24T01:33:55.735Z,195.73
2019-03-24T01:36:24.377Z,202.40
2019-03-24T01:38:53.009Z,193.27
2019-03-24T01:41:21.586Z,198.53
2019-03-24T01:43:50.142Z,210.77
2019-03-24T01:46:18.750Z,197.87
2019-03-24T01:48:47.316Z,198.33
2019-03-24T01:51:15.947Z,199.03
2019-03-24T01:53:44.646Z,210.53
2019-03-24T01:56:13.152Z,202.47
2019-03-24T01:58:41.647Z,199.03
2019-03-24T02:01:10.270Z,202.33
2019-03-24T02:03:38.857Z,198.77
2019-03-24T02:06:07.444Z,206.10
2019-03-24T02:08:35.972Z,205.10
2019-03-24T02:11:04.460Z,200.00
2019-03-24T02:13:32.977Z,216.13
2019-03-24T02:16:09.380Z,205.97
2019-03-24T02:18:31.812Z,208.70
2019-03-24T02:21:00.285Z,224.30
2019-03-24T02:23:28.983Z,211.37
2019-03-24T02:25:57.548Z,216.33
2019-03-24T02:28:26.530Z,205.47
2019-03-24T02:30:55.149Z,197.80
2019-03-24T02:33:23.660Z,200.20
2019-03-24T02:35:52.222Z,211.80
2019-03-24T02:38:20.695Z,197.43
2019-03-24T02:40:49.351Z,202.27
2019-03-24T02:43:18.956Z,205.63
2019-03-24T02:45:47.566Z,209.20
2019-03-24T02:48:16.130Z,213.73
2019-03-24T02:50:44.626Z,200.87
2019-03-24T02:53:13.174Z,211.93
2019-03-24T02:55:41.671Z,193.30
2019-03-24T02:58:10.244Z,204.10
2019-03-24T03:00:38.876Z,199.27
2019-03-24T03:03:07.387Z,198.70
2019-03-24T03:05:35.954Z,198.40
2019-03-24T03:08:04.486Z,194.73
2019-03-24T03:10:32.985Z,201.83
2019-03-24T03:13:01.490Z,201.70
2019-03-24T03:15:30.024Z,198.17
2019-03-24T03:17:58.598Z,198.00
2019-03-24T03:20:27.094Z,212.43
2019-03-24T03:22:55.714Z,199.10
2019-03-24T03:25:24.184Z,207.33
2019-03-24T03:27:52.752Z,205.03
2019-03-24T03:30:21.362Z,196.63
2019-03-24T03:32:49.849Z,204.90
2019-03-24T03:35:18.348Z,205.60
2019-03-24T03:37:46.892Z,200.23
2019-03-24T03:40:15.404Z,206.23
2019-03-24T03:42:43.964Z,208.70
2019-03-24T03:45:12.755Z,201.93
2019-03-24T03:47:41.241Z,200.63
2019-03-24T03:50:09.720Z,206.00
2019-03-24T03:52:38.257Z,197.97
2019-03-24T03:55:06.833Z,196.77
2019-03-24T03:57:35.399Z,202.83
2019-03-24T04:00:07.942Z,199.33
2019-03-24T04:02:36.435Z,193.97
2019-03-24T04:05:05.986Z,200.43
2019-03-24T04:07:34.910Z,190.13
2019-03-24T04:10:03.474Z,195.50
2019-03-24T04:12:32.108Z,191.60
2019-03-24T04:15:00.740Z,201.27
2019-03-24T04:17:29.240Z,192.13
2019-03-24T04:19:57.797Z,207.13
2019-03-24T04:22:26.346Z,197.63
2019-03-24T04:24:54.985Z,196.07
2019-03-24T04:27:23.479Z,193.30
2019-03-24T04:29:52.093Z,190.80
2019-03-24T04:32:20.510Z,192.87
2019-03-24T04:34:49.029Z,198.47
2019-03-24T04:37:17.588Z,199.33
2019-03-24T04:39:47.130Z,191.97
2019-03-24T04:42:16.094Z,203.20
2019-03-24T04:44:44.638Z,192.47
2019-03-24T04:47:16.812Z,202.30
2019-03-24T04:49:43.437Z,197.03
2019-03-24T04:52:12.171Z,199.97
2019-03-24T04:54:40.658Z,197.27
2019-03-24T04:57:09.143Z,198.57
2019-03-24T04:59:37.702Z,201.57
2019-03-24T05:02:06.180Z,196.30
2019-03-24T05:04:34.695Z,208.40
2019-03-24T05:07:03.290Z,192.57
2019-03-24T05:09:31.792Z,205.43
2019-03-24T05:12:00.337Z,197.10
2019-03-24T05:14:28.890Z,188.67
2019-03-24T05:16:57.523Z,191.90
2019-03-24T05:19:26.044Z,196.73
2019-03-24T05:21:54.645Z,191.83
2019-03-24T05:24:23.113Z,190.07
2019-03-24T05:26:51.701Z,186.57
2019-03-24T05:29:20.335Z,189.57
2019-03-24T05:31:48.805Z,194.07
2019-03-24T05:34:17.291Z,190.53
2019-03-24T05:36:48.723Z,186.90
2019-03-24T05:39:17.370Z,195.03
2019-03-24T05:41:45.887Z,203.40
2019-03-24T05:44:14.490Z,195.23
2019-03-24T05:46:42.975Z,189.93
2019-03-24T05:49:11.473Z,189.23
2019-03-24T05:51:40.020Z,196.23
2019-03-24T05:54:08.519Z,190.17
2019-03-24T05:56:37.010Z,188.80
2019-03-24T05:59:05.565Z,189.90
2019-03-24T06:01:34.121Z,186.27
2019-03-24T06:04:02.621Z,193.70
2019-03-24T06:06:31.145Z,195.70
2019-03-24T06:08:59.630Z,195.00
2019-03-24T06:11:28.122Z,204.30
2019-03-24T06:13:56.602Z,204.63
2019-03-24T06:16:25.096Z,194.60
2019-03-24T06:18:53.594Z,191.17
2019-03-24T06:21:22.073Z,190.83
2019-03-24T06:23:50.569Z,188.37
2019-03-24T06:26:19.055Z,205.90
2019-03-24T06:28:47.600Z,196.30
2019-03-24T06:31:16.161Z,195.23
2019-03-24T06:33:44.658Z,189.70
2019-03-24T06:36:13.220Z,200.63
2019-03-24T06:38:41.710Z,192.80
2019-03-24T06:41:10.129Z,194.30
2019-03-24T06:43:39.686Z,188.23
2019-03-24T06:46:08.245Z,196.63
2019-03-24T06:48:36.734Z,186.73
2019-03-24T06:51:05.300Z,203.90
2019-03-24T06:53:33.932Z,189.63
2019-03-24T06:56:02.490Z,194.10
2019-03-24T06:58:31.044Z,191.57
2019-03-24T07:00:59.596Z,204.10
2019-03-24T07:03:28.106Z,185.20
2019-03-24T07:05:56.830Z,189.57
2019-03-24T07:08:25.367Z,200.20
2019-03-24T07:10:54.147Z,191.90
2019-03-24T07:13:22.804Z,198.17
2019-03-24T07:15:51.360Z,197.17
2019-03-24T07:18:20.003Z,189.40
2019-03-24T07:20:48.618Z,196.83
2019-03-24T07:23:17.123Z,193.57
2019-03-24T07:25:45.678Z,193.00
2019-03-24T07:28:14.307Z,197.17
2019-03-24T07:30:42.936Z,190.57
2019-03-24T07:33:11.476Z,172.40
2019-03-24T07:35:41.501Z,163.40
2019-03-24T07:38:10.126Z,176.73
2019-03-24T07:40:38.790Z,240.60
2019-03-24T07:43:07.545Z,210.83
2019-03-24T07:45:36.055Z,200.50
2019-03-24T07:48:04.639Z,194.10
2019-03-24T07:50:33.316Z,192.20
2019-03-24T07:53:01.866Z,203.27
2019-03-24T07:55:30.514Z,204.53
2019-03-24T07:57:59.331Z,197.83
2019-03-24T08:00:36.317Z,192.70
2019-03-24T08:03:04.990Z,208.00
2019-03-24T08:05:33.653Z,195.73
2019-03-24T08:08:02.292Z,196.47
2019-03-24T08:10:30.982Z,211.23
2019-03-24T08:12:59.540Z,200.57
2019-03-24T08:15:28.089Z,200.43
2019-03-24T08:17:56.821Z,165.27
2019-03-24T08:20:25.393Z,193.77
2019-03-24T08:22:53.965Z,201.43
2019-03-24T08:25:22.676Z,196.57
2019-03-24T08:27:51.304Z,199.40
2019-03-24T08:30:25.719Z,193.13
2019-03-24T08:32:54.338Z,192.57
2019-03-24T08:35:22.735Z,194.07
2019-03-24T08:37:51.400Z,188.73
2019-03-24T08:40:20.000Z,200.60
2019-03-24T08:42:48.425Z,200.40
2019-03-24T08:45:28.472Z,192.80
2019-03-24T08:47:58.422Z,203.27
2019-03-24T08:50:26.995Z,167.67
2019-03-24T08:52:55.578Z,126.53
2019-03-24T08:55:24.181Z,201.37
2019-03-24T08:57:52.835Z,200.57
2019-03-24T09:00:30.174Z,202.20
2019-03-24T09:02:51.474Z,196.90
2019-03-24T09:05:20.060Z,190.10
2019-03-24T09:07:48.621Z,205.97
2019-03-24T09:10:17.112Z,193.33
2019-03-24T09:12:45.570Z,192.00
2019-03-24T09:15:14.037Z,187.87
2019-03-24T09:17:42.780Z,196.70
2019-03-24T09:20:11.335Z,186.73
2019-03-24T09:22:39.895Z,195.63
2019-03-24T09:25:08.457Z,193.53
2019-03-24T09:27:37.107Z,182.17
2019-03-24T09:30:08.249Z,185.40
2019-03-24T09:32:38.264Z,188.23
2019-03-24T09:35:06.843Z,187.40
2019-03-24T09:37:35.480Z,204.10
2019-03-24T09:40:06.688Z,204.03
2019-03-24T09:42:35.163Z,192.97
2019-03-24T09:45:04.469Z,178.83
2019-03-24T09:47:33.027Z,191.97
2019-03-24T09:50:01.577Z,204.60
2019-03-24T09:52:30.131Z,189.90
2019-03-24T09:54:58.734Z,189.30
2019-03-24T09:57:27.284Z,189.23
2019-03-24T09:59:55.908Z,189.87
2019-03-24T10:02:24.410Z,197.03
2019-03-24T10:04:54.920Z,186.40
2019-03-24T10:07:23.746Z,192.63
2019-03-24T10:09:52.884Z,196.30
2019-03-24T10:12:21.579Z,196.10
2019-03-24T10:14:50.456Z,135.90
2019-03-24T10:17:19.185Z,81.17
2019-03-24T10:19:47.744Z,62.43
2019-03-24T10:22:16.426Z,58.47
2019-03-24T10:24:45.106Z,39.27
2019-03-24T10:27:13.705Z,96.60
2019-03-24T10:29:42.415Z,193.13
2019-03-24T10:32:11.018Z,190.00
2019-03-24T10:34:39.758Z,195.20
2019-03-24T10:37:08.478Z,119.90
2019-03-24T10:39:37.216Z,145.97
2019-03-24T10:42:05.892Z,173.00
2019-03-24T10:44:34.604Z,206.43
2019-03-24T10:47:03.256Z,192.63
2019-03-24T10:49:34.468Z,194.80
2019-03-24T10:52:03.115Z,181.63
2019-03-24T10:54:31.683Z,200.77
2019-03-24T10:57:00.254Z,182.33
2019-03-24T10:59:28.791Z,184.37
2019-03-24T11:01:57.362Z,54.37
2019-03-24T11:04:26.848Z,14.70
2019-03-24T11:06:55.492Z,85.23
2019-03-24T11:09:23.990Z,54.00
2019-03-24T11:11:52.522Z,9.73
2019-03-24T11:14:21.145Z,14.00
2019-03-24T11:16:49.749Z,207.63
2019-03-24T11:19:18.285Z,199.00
2019-03-24T11:21:46.976Z,197.50
2019-03-24T11:24:15.471Z,185.07
2019-03-24T11:26:44.024Z,186.80
2019-03-24T11:29:12.918Z,195.27
2019-03-24T11:31:41.493Z,193.97
2019-03-24T11:34:10.417Z,215.63
2019-03-24T11:36:39.052Z,191.00
2019-03-24T11:39:08.167Z,200.10
2019-03-24T11:41:36.717Z,197.37
2019-03-24T11:44:05.320Z,192.83
2019-03-24T11:46:34.185Z,187.77
2019-03-24T11:49:02.678Z,198.10
2019-03-24T11:51:31.307Z,200.93
2019-03-24T11:54:00.762Z,110.53
2019-03-24T11:56:29.245Z,130.37
2019-03-24T11:58:57.897Z,102.17
2019-03-24T12:01:26.421Z,135.10
2019-03-24T12:03:54.933Z,170.37
2019-03-24T12:06:23.461Z,186.07
2019-03-24T12:08:51.953Z,194.00
2019-03-24T12:11:20.519Z,185.90
2019-03-24T12:13:49.052Z,187.60
2019-03-24T12:16:17.468Z,195.53
2019-03-24T12:18:45.972Z,206.23
2019-03-24T12:21:14.670Z,193.63
2019-03-24T12:23:43.244Z,195.73
2019-03-24T12:26:11.675Z,169.10
2019-03-24T12:28:40.243Z,194.93
2019-03-24T12:31:08.806Z,202.27
2019-03-24T12:33:37.359Z,148.90
2019-03-24T12:36:05.906Z,194.00
2019-03-24T12:38:36.029Z,201.90
2019-03-24T12:41:04.664Z,94.90
2019-03-24T12:43:33.199Z,91.13
2019-03-24T12:46:01.627Z,224.07
2019-03-24T12:48:30.115Z,156.57
2019-03-24T12:50:58.741Z,155.23
2019-03-24T12:53:27.368Z,117.17
2019-03-24T12:55:56.758Z,116.63
2019-03-24T12:58:27.319Z,16.27
2019-03-24T13:00:55.919Z,121.87
2019-03-24T13:03:24.412Z,201.97
2019-03-24T13:05:53.095Z,92.07
2019-03-24T13:08:21.659Z,166.37
2019-03-24T13:10:50.073Z,204.30
2019-03-24T13:13:18.620Z,18.77
2019-03-24T13:15:47.105Z,27.43
2019-03-24T13:18:15.532Z,83.43
2019-03-24T13:20:44.142Z,148.17
2019-03-24T13:23:12.712Z,24.60
2019-03-24T13:25:41.672Z,21.87
2019-03-24T13:28:10.247Z,120.93
2019-03-24T13:30:38.789Z,37.37
2019-03-24T13:33:07.201Z,129.53
2019-03-24T13:35:35.819Z,64.13
2019-03-24T13:38:04.303Z,139.13
2019-03-24T13:40:32.936Z,71.17
2019-03-24T13:43:01.465Z,18.07
2019-03-24T13:45:29.937Z,15.37
2019-03-24T13:47:58.496Z,23.60
2019-03-24T13:50:31.610Z,32.17
2019-03-24T13:52:58.284Z,135.87
2019-03-24T13:55:26.824Z,30.57
2019-03-24T13:57:56.446Z,15.50
2019-03-24T14:00:25.103Z,33.43
2019-03-24T14:02:53.656Z,67.40
2019-03-24T14:05:22.360Z,12.87
2019-03-24T14:07:50.979Z,17.07
2019-03-24T14:10:21.179Z,21.00
2019-03-24T14:12:49.792Z,22.53
2019-03-24T14:15:18.263Z,13.80
2019-03-24T14:17:46.760Z,148.40
2019-03-24T14:20:15.388Z,77.53
2019-03-24T14:22:44.014Z,18.07
2019-03-24T14:25:12.640Z,16.10
2019-03-24T14:27:41.657Z,10.47
2019-03-24T14:30:10.339Z,9.87
2019-03-24T14:32:39.055Z,21.43
2019-03-24T14:35:07.789Z,11.60
2019-03-24T14:37:36.446Z,15.40
2019-03-24T14:40:05.512Z,15.80
2019-03-24T14:42:35.833Z,13.93
2019-03-24T14:45:06.447Z,18.47
2019-03-24T14:47:34.926Z,12.40
2019-03-24T14:50:04.482Z,10.67
2019-03-24T14:52:33.486Z,15.20
2019-03-24T14:55:02.136Z,26.03
2019-03-24T14:57:31.176Z,40.60
2019-03-24T15:00:00.800Z,9.53
2019-03-24T15:02:29.535Z,12.80
2019-03-24T15:04:58.146Z,6.23
2019-03-24T15:07:26.638Z,13.93
2019-03-24T15:09:55.206Z,13.17
2019-03-24T15:12:23.897Z,12.13
2019-03-24T15:14:52.448Z,6.57
2019-03-24T15:17:21.076Z,19.27
2019-03-24T15:19:49.776Z,13.20
2019-03-24T15:22:18.277Z,13.60
2019-03-24T15:24:46.816Z,13.03
2019-03-24T15:27:15.443Z,13.50
2019-03-24T15:29:44.090Z,11.07
2019-03-24T15:32:13.184Z,8.67
2019-03-24T15:34:41.870Z,5.53
2019-03-24T15:37:10.494Z,8.70
2019-03-24T15:39:39.288Z,16.47
2019-03-24T15:42:07.829Z,13.93
2019-03-24T15:44:36.496Z,8.60
2019-03-24T15:47:05.156Z,94.47
2019-03-24T15:49:33.788Z,148.07
2019-03-24T15:52:02.477Z,17.90
2019-03-24T15:54:33.050Z,7.63
2019-03-24T15:57:01.377Z,143.10
2019-03-24T15:59:31.103Z,174.77
2019-03-24T16:01:59.585Z,100.10
2019-03-24T16:04:28.289Z,13.30
2019-03-24T16:06:59.284Z,13.33
2019-03-24T16:09:27.765Z,21.40
2019-03-24T16:11:56.454Z,30.50
2019-03-24T16:14:25.066Z,9.63
2019-03-24T16:16:53.554Z,10.80
2019-03-24T16:19:22.303Z,10.43
2019-03-24T16:21:50.874Z,28.57
2019-03-24T16:24:19.762Z,37.00
2019-03-24T16:26:48.328Z,21.37
2019-03-24T16:29:16.976Z,89.23
2019-03-24T16:31:45.464Z,107.97
2019-03-24T16:34:14.040Z,135.93
2019-03-24T16:36:44.836Z,130.97
2019-03-24T16:39:13.310Z,90.23
2019-03-24T16:41:42.055Z,35.13
2019-03-24T16:44:10.621Z,97.67
2019-03-24T16:46:39.199Z,171.97
2019-03-24T16:49:07.789Z,182.50
2019-03-24T16:51:38.783Z,104.93
2019-03-24T16:54:06.597Z,150.00
2019-03-24T16:56:35.198Z,77.90
2019-03-24T16:59:03.883Z,63.47
2019-03-24T17:01:32.560Z,130.30
2019-03-24T17:04:02.152Z,15.27
2019-03-24T17:06:30.734Z,28.90
2019-03-24T17:08:59.329Z,83.97
2019-03-24T17:11:28.076Z,94.07
2019-03-24T17:13:56.642Z,109.47
2019-03-24T17:16:25.300Z,134.10
2019-03-24T17:18:53.959Z,140.43
2019-03-24T17:21:22.535Z,171.60
2019-03-24T17:23:51.094Z,127.93
2019-03-24T17:26:19.849Z,100.97
2019-03-24T17:28:48.403Z,26.50
2019-03-24T17:31:17.081Z,20.80
2019-03-24T17:33:46.866Z,21.40
2019-03-24T17:36:15.511Z,18.47
2019-03-24T17:38:44.630Z,36.03
2019-03-24T17:41:13.608Z,24.50
2019-03-24T17:43:42.264Z,19.73
2019-03-24T17:46:11.301Z,25.20
2019-03-24T17:48:40.009Z,28.50
2019-03-24T17:51:09.996Z,25.33
2019-03-24T17:53:38.888Z,17.60
2019-03-24T17:56:07.613Z,20.33
2019-03-24T17:58:37.374Z,18.37
2019-03-24T18:01:06.158Z,21.73
2019-03-24T18:03:34.919Z,16.90
2019-03-24T18:06:03.711Z,13.60
2019-03-24T18:08:32.855Z,18.83
2019-03-24T18:11:01.470Z,42.80
2019-03-24T18:13:30.164Z,26.40
2019-03-24T18:16:00.309Z,23.63
2019-03-24T18:18:29.086Z,22.70
2019-03-24T18:20:57.808Z,21.70
2019-03-24T18:23:26.433Z,24.53
2019-03-24T18:25:55.107Z,12.57
2019-03-24T18:28:23.957Z,18.50
2019-03-24T18:30:52.690Z,19.80
2019-03-24T18:33:23.551Z,19.97
2019-03-24T18:35:52.303Z,21.37
2019-03-24T18:38:24.705Z,16.30
2019-03-24T18:40:53.471Z,20.30
2019-03-24T18:43:22.230Z,17.60
2019-03-24T18:45:51.268Z,13.53
2019-03-24T18:48:20.016Z,18.43
2019-03-24T18:50:48.775Z,20.60
2019-03-24T18:53:18.380Z,23.63
2019-03-24T18:55:47.835Z,15.03
2019-03-24T18:58:16.801Z,14.00
2019-03-24T19:00:47.892Z,18.80
2019-03-24T19:03:17.014Z,23.03
2019-03-24T19:05:45.873Z,22.97
2019-03-24T19:08:14.960Z,25.23
2019-03-24T19:10:44.429Z,16.63
2019-03-24T19:13:13.482Z,13.33
2019-03-24T19:15:42.263Z,23.63
2019-03-24T19:18:13.992Z,28.83
2019-03-24T19:20:44.430Z,24.97
2019-03-24T19:23:13.240Z,26.93
2019-03-24T19:25:41.972Z,27.60
2019-03-24T19:28:11.012Z,30.27
2019-03-24T19:30:39.900Z,26.13
2019-03-24T19:33:08.751Z,20.43
2019-03-24T19:35:37.388Z,30.93
2019-03-24T19:38:06.022Z,21.83
2019-03-24T19:40:35.188Z,21.23
2019-03-24T19:43:03.828Z,27.90
2019-03-24T19:45:32.516Z,28.63
2019-03-24T19:48:01.214Z,28.33
2019-03-24T19:50:29.867Z,22.60
2019-03-24T19:52:58.419Z,29.13
2019-03-24T19:55:27.113Z,24.17
2019-03-24T19:57:56.844Z,33.67
2019-03-24T20:00:25.830Z,32.17
2019-03-24T20:02:55.127Z,22.60
2019-03-24T20:05:23.704Z,24.43
2019-03-24T20:07:52.362Z,33.13
2019-03-24T20:10:22.091Z,47.37
2019-03-24T20:12:50.777Z,90.93
2019-03-24T20:15:19.555Z,35.93
2019-03-24T20:17:48.231Z,30.20
2019-03-24T20:20:16.919Z,27.90
2019-03-24T20:22:55.877Z,23.70
2019-03-24T20:25:17.469Z,17.77
2019-03-24T20:27:46.798Z,24.07
2019-03-24T20:30:16.383Z,34.23
2019-03-24T20:32:45.193Z,24.50
2019-03-24T20:35:13.930Z,45.70
2019-03-24T20:37:42.553Z,28.73
2019-03-24T20:40:11.468Z,24.07
2019-03-24T20:42:40.454Z,58.27
2019-03-24T20:45:10.138Z,45.73
2019-03-24T20:47:39.395Z,36.17
2019-03-24T20:50:08.877Z,27.70
2019-03-24T20:52:38.236Z,98.67
2019-03-24T20:55:07.789Z,75.47
2019-03-24T20:57:38.756Z,44.33
2019-03-24T21:00:07.476Z,19.87
2019-03-24T21:02:36.122Z,29.73
2019-03-24T21:05:05.971Z,29.90
2019-03-24T21:07:34.762Z,33.73
2019-03-24T21:10:06.395Z,26.77
2019-03-24T21:12:37.973Z,30.67
2019-03-24T21:15:07.814Z,29.17
2019-03-24T21:17:36.442Z,52.00
2019-03-24T21:20:06.967Z,26.70
2019-03-24T21:22:35.657Z,28.93
2019-03-24T21:25:06.274Z,31.90
2019-03-24T21:27:34.883Z,45.37
2019-03-24T21:30:04.652Z,27.80
2019-03-24T21:32:36.203Z,27.40
2019-03-24T21:35:05.947Z,46.53
2019-03-24T21:37:34.585Z,25.50
2019-03-24T21:40:06.189Z,29.53
2019-03-24T21:42:34.732Z,38.73
2019-03-24T21:45:04.242Z,29.73
2019-03-24T21:47:33.369Z,36.87
2019-03-24T21:50:01.890Z,29.20
2019-03-24T21:52:30.456Z,30.67
2019-03-24T21:54:59.167Z,33.10
2019-03-24T21:57:27.670Z,35.37
2019-03-24T21:59:56.217Z,37.73
2019-03-24T22:02:24.759Z,34.17
2019-03-24T22:04:55.998Z,32.53
2019-03-24T22:07:24.492Z,31.33
2019-03-24T22:09:53.438Z,32.67
2019-03-24T22:12:22.060Z,34.67
2019-03-24T22:14:51.784Z,34.40
2019-03-24T22:17:20.314Z,26.90
2019-03-24T22:19:49.072Z,33.90
2019-03-24T22:22:17.640Z,196.73
2019-03-24T22:24:45.890Z,186.87
2019-03-24T22:27:14.538Z,174.27
2019-03-24T22:29:43.182Z,191.03
2019-03-24T22:32:11.700Z,181.53
2019-03-24T22:34:39.896Z,181.43
2019-03-24T22:37:15.876Z,186.07
2019-03-24T22:39:38.491Z,197.93
2019-03-24T22:42:07.110Z,180.90
2019-03-24T22:44:35.556Z,185.60
2019-03-24T22:47:04.193Z,185.73
2019-03-24T22:49:32.373Z,195.67
2019-03-24T22:52:07.091Z,207.47
2019-03-24T22:54:31.268Z,186.80
2019-03-24T22:56:59.968Z,197.47
2019-03-24T22:59:28.630Z,191.70
2019-03-24T23:01:57.286Z,199.70
2019-03-24T23:04:25.956Z,195.77
2019-03-24T23:06:55.017Z,197.60
2019-03-24T23:09:23.543Z,199.17
2019-03-24T23:11:52.259Z,192.37
2019-03-24T23:14:20.555Z,200.80
2019-03-24T23:16:50.064Z,197.60
2019-03-24T23:19:18.641Z,200.57
2019-03-24T23:21:47.297Z,194.17
2019-03-24T23:24:16.097Z,207.07
2019-03-24T23:26:44.931Z,202.00
2019-03-24T23:29:13.480Z,189.67
2019-03-24T23:31:41.992Z,210.47
2019-03-24T23:34:10.634Z,195.13
2019-03-24T23:36:39.327Z,197.93
2019-03-24T23:39:08.130Z,203.83
2019-03-24T23:41:36.289Z,195.33
2019-03-24T23:44:04.909Z,197.77
2019-03-24T23:46:33.469Z,193.87
2019-03-24T23:49:01.717Z,196.27
2019-03-24T23:51:30.184Z,205.70
2019-03-24T23:53:58.668Z,199.73
2019-03-24T23:56:27.166Z,206.17
2019-03-24T23:58:55.401Z,203.53
